Balfron, United Kingdom
Current Conditions -  °F | °C
As of 3:50 AM on Saturday 29 Nov 2014 (Local Time) from EGPF Reporting Station
Overcast Overcast  
Wind Chill: 44°   Ceiling: 1200
Heat Index: 48°   Visibility: 5mi
Dew Point: 46°   Wind: 9mph
Humidity: 93%   Direction: 70°ENE
Pressure: 29.85"   Gusts: NA
Location:  56.07°N, 4.34°W
Report Text: EGPF 290350Z AUTO 07008KT 8000 OVC012 09/08 Q1011
Loading
Personal Weather Stations






























Interactive Weather Map New forecast layout! Learn more

10-Day Weather Forecast

Advertisements
Track Severe Weather on mobile